createdAt,value
2016-11-21T00:00:32.670Z,0
2016-11-21T00:01:13.266Z,0
2016-11-21T00:01:54.083Z,0
2016-11-21T00:02:34.742Z,0
2016-11-21T00:03:15.492Z,0
2016-11-21T00:03:56.808Z,0
2016-11-21T00:04:37.590Z,0
2016-11-21T00:05:18.328Z,0
2016-11-21T00:05:59.117Z,0
2016-11-21T00:06:39.876Z,0
2016-11-21T00:07:20.581Z,0
2016-11-21T00:08:01.360Z,0
2016-11-21T00:08:42.154Z,0
2016-11-21T00:09:22.893Z,0
2016-11-21T00:10:03.748Z,0
2016-11-21T00:10:44.497Z,0
2016-11-21T00:11:25.167Z,0
2016-11-21T00:12:05.874Z,0
2016-11-21T00:12:46.569Z,0
2016-11-21T00:13:27.198Z,0
2016-11-21T00:14:07.987Z,0
2016-11-21T00:14:48.692Z,0
2016-11-21T00:15:29.345Z,0
2016-11-21T00:16:10.026Z,0
2016-11-21T00:16:50.679Z,0
2016-11-21T00:17:31.317Z,0
2016-11-21T00:18:12.140Z,0
2016-11-21T00:18:52.878Z,0
2016-11-21T00:19:33.876Z,0
2016-11-21T00:20:14.612Z,0
2016-11-21T00:20:55.386Z,0
2016-11-21T00:21:36.082Z,0
2016-11-21T00:22:16.789Z,0
2016-11-21T00:22:57.478Z,0
2016-11-21T00:23:38.288Z,0
2016-11-21T00:24:18.995Z,0
2016-11-21T00:24:59.754Z,0
2016-11-21T00:25:40.415Z,0
2016-11-21T00:26:21.271Z,0
2016-11-21T00:27:01.996Z,0
2016-11-21T00:27:42.686Z,0
2016-11-21T00:28:23.429Z,0
2016-11-21T00:29:04.183Z,0
2016-11-21T00:29:44.859Z,0
2016-11-21T00:30:25.491Z,0
2016-11-21T00:31:06.143Z,0
2016-11-21T00:31:46.864Z,0
2016-11-21T00:32:27.559Z,0
2016-11-21T00:33:08.245Z,0
2016-11-21T00:33:48.972Z,0
2016-11-21T00:34:29.619Z,0
2016-11-21T00:35:10.401Z,0
2016-11-21T00:35:51.090Z,0
2016-11-21T00:36:31.890Z,0
2016-11-21T00:37:12.676Z,0
2016-11-21T00:37:53.466Z,0
2016-11-21T00:38:34.142Z,0
2016-11-21T00:39:14.915Z,0
2016-11-21T00:39:55.710Z,0
2016-11-21T00:40:36.408Z,0
2016-11-21T00:41:17.148Z,0
2016-11-21T00:41:57.846Z,0
2016-11-21T00:42:38.553Z,0
2016-11-21T00:43:19.253Z,0
2016-11-21T00:44:00.043Z,0
2016-11-21T00:44:40.699Z,0
2016-11-21T00:45:21.484Z,0
2016-11-21T00:46:02.195Z,0
2016-11-21T00:46:42.864Z,0
2016-11-21T00:47:23.618Z,0
2016-11-21T00:48:04.401Z,0
2016-11-21T00:48:45.068Z,0
2016-11-21T00:49:25.713Z,0
2016-11-21T00:50:06.421Z,0
2016-11-21T00:50:47.306Z,0
2016-11-21T00:51:28.063Z,0
2016-11-21T00:52:08.799Z,0
2016-11-21T00:52:49.452Z,0
2016-11-21T00:53:30.193Z,0
2016-11-21T00:54:10.826Z,0
2016-11-21T00:54:51.483Z,0
2016-11-21T00:55:32.166Z,0
2016-11-21T00:56:12.762Z,0
2016-11-21T00:56:53.486Z,0
2016-11-21T00:57:34.201Z,0
2016-11-21T00:58:14.864Z,0
2016-11-21T00:58:55.514Z,0
2016-11-21T00:59:36.162Z,0
2016-11-21T01:00:16.831Z,0
2016-11-21T01:00:57.613Z,0
2016-11-21T01:01:38.324Z,0
2016-11-21T01:02:19.149Z,0
2016-11-21T01:02:59.879Z,0
2016-11-21T01:03:40.579Z,0
2016-11-21T01:04:21.313Z,0
2016-11-21T01:05:02.030Z,0
2016-11-21T01:05:42.794Z,0
2016-11-21T01:06:23.582Z,0
2016-11-21T01:07:04.284Z,0
2016-11-21T01:07:45.011Z,0
2016-11-21T01:08:25.755Z,0
2016-11-21T01:09:06.519Z,0
2016-11-21T01:09:47.257Z,0
2016-11-21T01:10:27.935Z,0
2016-11-21T01:11:08.739Z,0
2016-11-21T01:11:49.489Z,0
2016-11-21T01:12:30.239Z,0
2016-11-21T01:13:10.976Z,0
2016-11-21T01:13:51.689Z,0
2016-11-21T01:14:32.325Z,0
2016-11-21T01:15:13.094Z,0
2016-11-21T01:15:53.723Z,0
2016-11-21T01:16:34.632Z,0
2016-11-21T01:17:15.361Z,0
2016-11-21T01:17:56.074Z,0
2016-11-21T01:18:36.801Z,0
2016-11-21T01:19:17.496Z,0
2016-11-21T01:19:58.263Z,0
2016-11-21T01:20:39.048Z,0
2016-11-21T01:21:19.869Z,0
2016-11-21T01:22:00.618Z,0
2016-11-21T01:22:41.282Z,0
2016-11-21T01:23:21.974Z,0
2016-11-21T01:24:02.720Z,0
2016-11-21T01:24:43.488Z,0
2016-11-21T01:25:24.215Z,0
2016-11-21T01:26:04.904Z,0
2016-11-21T01:26:45.625Z,0
2016-11-21T01:27:26.288Z,0
2016-11-21T01:28:07.012Z,0
2016-11-21T01:28:47.766Z,0
2016-11-21T01:29:28.494Z,0
2016-11-21T01:30:09.222Z,0
2016-11-21T01:30:49.944Z,0
2016-11-21T01:31:30.572Z,0
2016-11-21T01:32:11.334Z,0
2016-11-21T01:32:52.060Z,0
2016-11-21T01:33:32.924Z,0
2016-11-21T01:34:13.646Z,0
2016-11-21T01:34:54.408Z,0
2016-11-21T01:35:35.128Z,0
2016-11-21T01:36:15.890Z,0
2016-11-21T01:36:56.516Z,0
2016-11-21T01:37:37.507Z,0
2016-11-21T01:38:18.212Z,0
2016-11-21T01:38:59.063Z,0
2016-11-21T01:39:39.662Z,0
2016-11-21T01:40:20.350Z,0
2016-11-21T01:41:01.025Z,0
2016-11-21T01:41:41.762Z,0
2016-11-21T01:42:22.492Z,0
2016-11-21T01:43:03.173Z,0
2016-11-21T01:43:43.818Z,0
2016-11-21T01:44:24.657Z,0
2016-11-21T01:45:05.428Z,0
2016-11-21T01:45:46.228Z,0
2016-11-21T01:46:26.981Z,0
2016-11-21T01:47:07.719Z,0
2016-11-21T01:47:48.390Z,0
2016-11-21T01:48:29.128Z,0
2016-11-21T01:49:09.740Z,0
2016-11-21T01:49:50.529Z,0
2016-11-21T01:50:31.184Z,0
2016-11-21T01:51:11.876Z,0
2016-11-21T01:51:52.636Z,0
2016-11-21T01:52:33.394Z,0
2016-11-21T01:53:14.085Z,0
2016-11-21T01:53:54.713Z,0
2016-11-21T01:54:35.300Z,0
2016-11-21T01:55:15.933Z,0
2016-11-21T01:55:56.644Z,0
2016-11-21T01:56:37.365Z,0
2016-11-21T01:57:18.003Z,0
2016-11-21T01:57:58.740Z,0
2016-11-21T01:58:39.522Z,0
2016-11-21T01:59:20.317Z,0
2016-11-21T02:00:01.019Z,0
2016-11-21T02:00:41.767Z,0
2016-11-21T02:01:22.509Z,0
2016-11-21T02:02:03.138Z,0
2016-11-21T02:02:43.841Z,0
2016-11-21T02:03:24.526Z,0
2016-11-21T02:04:05.232Z,0
2016-11-21T02:04:45.969Z,0
2016-11-21T02:05:26.833Z,0
2016-11-21T02:06:07.610Z,0
2016-11-21T02:06:48.331Z,0
2016-11-21T02:07:29.027Z,0
2016-11-21T02:08:09.760Z,0
2016-11-21T02:08:50.557Z,0
2016-11-21T02:09:31.256Z,0
2016-11-21T02:10:11.969Z,0
2016-11-21T02:10:52.585Z,0
2016-11-21T02:11:33.387Z,0
2016-11-21T02:12:14.076Z,0
2016-11-21T02:12:54.793Z,0
2016-11-21T02:13:35.525Z,0
2016-11-21T02:14:16.248Z,0
2016-11-21T02:14:57.022Z,0
2016-11-21T02:15:37.820Z,0
2016-11-21T02:16:18.524Z,0
2016-11-21T02:16:59.326Z,0
2016-11-21T02:17:40.099Z,0
2016-11-21T02:18:20.808Z,0
2016-11-21T02:19:01.442Z,0
2016-11-21T02:19:42.183Z,0
2016-11-21T02:20:22.848Z,0
2016-11-21T02:21:03.562Z,0
2016-11-21T02:21:44.370Z,0
2016-11-21T02:22:25.139Z,0
2016-11-21T02:23:05.857Z,0
2016-11-21T02:23:46.519Z,0
2016-11-21T02:24:27.195Z,0
2016-11-21T02:25:07.941Z,0
2016-11-21T02:25:48.593Z,0
2016-11-21T02:26:29.303Z,0
2016-11-21T02:27:10.078Z,0
2016-11-21T02:27:50.838Z,0
2016-11-21T02:28:31.636Z,0
2016-11-21T02:29:12.398Z,0
2016-11-21T02:29:53.113Z,0
2016-11-21T02:30:33.774Z,0
2016-11-21T02:31:14.444Z,0
2016-11-21T02:31:55.162Z,0
2016-11-21T02:32:37.695Z,0
2016-11-21T02:33:17.481Z,0
2016-11-21T02:33:58.154Z,0
2016-11-21T02:34:38.927Z,0
2016-11-21T02:35:19.653Z,0
2016-11-21T02:36:00.311Z,0
2016-11-21T02:36:40.941Z,0
2016-11-21T02:37:21.637Z,0
2016-11-21T02:38:02.283Z,0
2016-11-21T02:38:42.966Z,0
2016-11-21T02:39:23.708Z,0
2016-11-21T02:40:04.361Z,0
2016-11-21T02:40:44.969Z,0
2016-11-21T02:41:25.631Z,0
2016-11-21T02:42:06.218Z,0
2016-11-21T02:42:46.837Z,0
2016-11-21T02:43:27.658Z,0
2016-11-21T02:44:08.391Z,0
2016-11-21T02:44:49.282Z,0
2016-11-21T02:45:30.146Z,0
2016-11-21T02:46:10.854Z,0
2016-11-21T02:46:51.573Z,0
2016-11-21T02:47:32.278Z,0
2016-11-21T02:48:12.984Z,0
2016-11-21T02:48:53.684Z,0
2016-11-21T02:49:34.345Z,0
2016-11-21T02:50:15.033Z,0
2016-11-21T02:50:55.689Z,0
2016-11-21T02:51:36.489Z,0
2016-11-21T02:52:17.203Z,0
2016-11-21T02:52:57.866Z,0
2016-11-21T02:53:38.618Z,0
2016-11-21T02:54:19.391Z,0
2016-11-21T02:55:00.206Z,0
2016-11-21T02:55:40.984Z,0
2016-11-21T02:56:22.554Z,0
2016-11-21T02:57:03.358Z,0
2016-11-21T02:57:44.100Z,0
2016-11-21T02:58:24.748Z,0
2016-11-21T02:59:05.627Z,0
2016-11-21T02:59:46.298Z,0
2016-11-21T03:00:27.038Z,0
2016-11-21T03:01:07.813Z,0
2016-11-21T03:01:48.519Z,0
2016-11-21T03:02:29.268Z,0
2016-11-21T03:03:09.956Z,0
2016-11-21T03:03:50.653Z,0
2016-11-21T03:04:31.437Z,0
2016-11-21T03:05:12.186Z,0
2016-11-21T03:05:52.861Z,0
2016-11-21T03:06:33.653Z,0
2016-11-21T03:07:14.519Z,0
2016-11-21T03:07:55.256Z,0
2016-11-21T03:08:36.018Z,0
2016-11-21T03:09:16.741Z,0
2016-11-21T03:09:57.511Z,0
2016-11-21T03:10:38.153Z,0
2016-11-21T03:11:18.933Z,0
2016-11-21T03:11:59.623Z,0
2016-11-21T03:12:40.340Z,0
2016-11-21T03:13:21.088Z,0
2016-11-21T03:14:02.353Z,0
2016-11-21T03:14:43.038Z,0
2016-11-21T03:15:23.751Z,0
2016-11-21T03:16:04.479Z,0
2016-11-21T03:16:45.176Z,0
2016-11-21T03:17:25.866Z,0
2016-11-21T03:18:06.565Z,0
2016-11-21T03:18:47.287Z,0
2016-11-21T03:19:27.945Z,0
2016-11-21T03:20:08.806Z,0
2016-11-21T03:20:49.501Z,0
2016-11-21T03:21:30.193Z,0
2016-11-21T03:22:10.894Z,0
2016-11-21T03:22:51.648Z,0
2016-11-21T03:23:32.416Z,0
2016-11-21T03:24:13.104Z,0
2016-11-21T03:24:53.947Z,0
2016-11-21T03:25:35.364Z,0
2016-11-21T03:26:15.978Z,0
2016-11-21T03:26:56.805Z,0
2016-11-21T03:27:37.645Z,0
2016-11-21T03:28:18.398Z,0
2016-11-21T03:28:59.183Z,0
2016-11-21T03:29:39.940Z,0
2016-11-21T03:30:20.731Z,0
2016-11-21T03:31:01.522Z,0
2016-11-21T03:31:42.108Z,0
2016-11-21T03:32:22.712Z,0
2016-11-21T03:33:03.403Z,0
2016-11-21T03:33:44.062Z,0
2016-11-21T03:34:24.821Z,0
2016-11-21T03:35:05.692Z,0
2016-11-21T03:35:46.465Z,0
2016-11-21T03:36:27.105Z,0
2016-11-21T03:37:07.822Z,0
2016-11-21T03:37:48.559Z,0
2016-11-21T03:38:29.351Z,0
2016-11-21T03:39:10.063Z,0
2016-11-21T03:39:50.794Z,0
2016-11-21T03:40:31.566Z,0
2016-11-21T03:41:12.300Z,0
2016-11-21T03:41:52.960Z,0
2016-11-21T03:42:33.707Z,0
2016-11-21T03:43:14.384Z,0
2016-11-21T03:43:55.071Z,0
2016-11-21T03:44:35.739Z,0
2016-11-21T03:45:16.444Z,0
2016-11-21T03:45:57.093Z,0
2016-11-21T03:46:38.419Z,0
2016-11-21T03:47:19.092Z,0
2016-11-21T03:47:59.759Z,0
2016-11-21T03:48:40.509Z,0
2016-11-21T03:49:21.184Z,0
2016-11-21T03:50:01.941Z,0
2016-11-21T03:50:42.620Z,0
2016-11-21T03:51:23.467Z,0
2016-11-21T03:52:04.294Z,0
2016-11-21T03:52:45.065Z,0
2016-11-21T03:53:25.763Z,0
2016-11-21T03:54:06.452Z,0
2016-11-21T03:54:47.144Z,0
2016-11-21T03:55:27.908Z,0
2016-11-21T03:56:08.528Z,0
2016-11-21T03:58:41.925Z,0
2016-11-21T03:59:22.618Z,0
2016-11-21T04:00:03.283Z,0
2016-11-21T04:00:43.950Z,0
2016-11-21T04:01:24.565Z,0
2016-11-21T04:02:05.203Z,0
2016-11-21T04:02:45.844Z,0
2016-11-21T04:03:26.457Z,0
2016-11-21T04:04:07.140Z,0
2016-11-21T04:04:47.800Z,0
2016-11-21T04:05:28.512Z,0
2016-11-21T04:06:09.312Z,0
2016-11-21T04:06:50.206Z,0
2016-11-21T04:07:30.886Z,0
2016-11-21T04:08:11.559Z,0
2016-11-21T04:08:52.169Z,0
2016-11-21T04:09:32.877Z,0
2016-11-21T04:10:13.585Z,0
2016-11-21T04:10:54.407Z,0
2016-11-21T04:11:35.091Z,0
2016-11-21T04:12:15.779Z,0
2016-11-21T04:12:56.539Z,0
2016-11-21T04:13:37.437Z,0
2016-11-21T04:14:18.264Z,0
2016-11-21T04:14:58.871Z,0
2016-11-21T04:15:39.544Z,0
2016-11-21T04:16:20.199Z,0
2016-11-21T04:17:01.120Z,0
2016-11-21T04:17:41.836Z,0
2016-11-21T04:18:22.510Z,0
2016-11-21T04:19:03.196Z,0
2016-11-21T04:19:43.946Z,0
2016-11-21T04:20:25.313Z,0
2016-11-21T04:21:06.046Z,0
2016-11-21T04:21:46.779Z,0
2016-11-21T04:22:27.504Z,0
2016-11-21T04:23:08.161Z,0
2016-11-21T04:23:48.952Z,0
2016-11-21T04:24:29.610Z,0
2016-11-21T04:25:10.274Z,0
2016-11-21T04:25:50.932Z,0
2016-11-21T04:26:31.644Z,0
2016-11-21T04:27:12.274Z,0
2016-11-21T04:27:52.984Z,0
2016-11-21T04:28:33.762Z,0
2016-11-21T04:29:14.528Z,0
2016-11-21T04:29:55.219Z,0
2016-11-21T04:30:35.893Z,0
2016-11-21T04:31:16.490Z,0
2016-11-21T04:31:57.163Z,0
2016-11-21T04:32:37.916Z,0
2016-11-21T04:33:18.709Z,0
2016-11-21T04:33:59.382Z,0
2016-11-21T04:34:40.035Z,0
2016-11-21T04:35:20.727Z,0
2016-11-21T04:36:01.372Z,0
2016-11-21T04:36:42.067Z,0
2016-11-21T04:37:22.733Z,0
2016-11-21T04:38:03.465Z,0
2016-11-21T04:38:44.178Z,0
2016-11-21T04:39:24.852Z,0
2016-11-21T04:40:05.596Z,0
2016-11-21T04:40:46.319Z,0
2016-11-21T04:41:27.005Z,0
2016-11-21T04:42:07.719Z,0
2016-11-21T04:42:48.347Z,0
2016-11-21T04:43:29.038Z,0
2016-11-21T04:44:09.687Z,0
2016-11-21T04:44:50.385Z,0
2016-11-21T04:45:30.995Z,0
2016-11-21T04:46:11.630Z,0
2016-11-21T04:46:52.288Z,0
2016-11-21T04:47:33.027Z,0
2016-11-21T04:48:13.756Z,0
2016-11-21T04:48:54.348Z,0
2016-11-21T04:49:35.085Z,0
2016-11-21T04:50:15.711Z,0
2016-11-21T04:50:56.414Z,0
2016-11-21T04:51:37.178Z,0
2016-11-21T04:52:17.949Z,0
2016-11-21T04:52:58.655Z,0
2016-11-21T04:53:39.449Z,0
2016-11-21T04:54:20.230Z,0
2016-11-21T04:55:00.988Z,0
2016-11-21T04:55:41.693Z,0
2016-11-21T04:56:22.455Z,0
2016-11-21T04:57:03.095Z,0
2016-11-21T04:57:43.713Z,0
2016-11-21T04:58:24.568Z,0
2016-11-21T04:59:05.285Z,0
2016-11-21T04:59:45.956Z,0
2016-11-21T05:00:26.739Z,0
2016-11-21T05:01:07.357Z,0
2016-11-21T05:01:48.038Z,0
2016-11-21T05:02:28.723Z,0
2016-11-21T05:03:09.440Z,0
2016-11-21T05:03:50.193Z,0
2016-11-21T05:04:31.048Z,0
2016-11-21T05:05:11.722Z,0
2016-11-21T05:05:52.386Z,0
2016-11-21T05:06:33.037Z,0
2016-11-21T05:07:13.760Z,0
2016-11-21T05:07:54.597Z,0
2016-11-21T05:08:35.339Z,0
2016-11-21T05:09:16.064Z,0
2016-11-21T05:09:56.802Z,0
2016-11-21T05:10:37.457Z,0
2016-11-21T05:11:18.193Z,0
2016-11-21T05:11:58.878Z,0
2016-11-21T05:12:39.516Z,0
2016-11-21T05:13:20.170Z,0
2016-11-21T05:14:00.797Z,0
2016-11-21T05:14:41.578Z,0
2016-11-21T05:15:22.392Z,0
2016-11-21T05:16:03.190Z,0
2016-11-21T05:16:44.444Z,0
2016-11-21T05:17:25.194Z,0
2016-11-21T05:18:05.865Z,0
2016-11-21T05:18:46.517Z,0
2016-11-21T05:19:27.323Z,0
2016-11-21T05:20:07.949Z,0
2016-11-21T05:20:48.715Z,0
2016-11-21T05:21:29.287Z,0
2016-11-21T05:22:10.145Z,0
2016-11-21T05:22:50.803Z,0
2016-11-21T05:23:31.527Z,0
2016-11-21T05:24:12.219Z,0
2016-11-21T05:24:52.957Z,0
2016-11-21T05:25:33.845Z,0
2016-11-21T05:26:15.537Z,0
2016-11-21T05:26:56.168Z,0
2016-11-21T05:27:36.853Z,0
2016-11-21T05:28:17.499Z,0
2016-11-21T05:28:58.205Z,0
2016-11-21T05:29:38.901Z,0
2016-11-21T05:30:19.661Z,0
2016-11-21T05:31:00.428Z,0
2016-11-21T05:31:41.157Z,0
2016-11-21T05:32:21.909Z,0
2016-11-21T05:33:02.560Z,0
2016-11-21T05:33:43.327Z,0
2016-11-21T05:34:24.087Z,0
2016-11-21T05:35:04.751Z,0
2016-11-21T05:35:45.438Z,0
2016-11-21T05:36:26.053Z,0
2016-11-21T05:37:06.781Z,0
2016-11-21T05:37:47.522Z,0
2016-11-21T05:38:28.097Z,0
2016-11-21T05:39:08.702Z,0
2016-11-21T05:39:49.421Z,0
2016-11-21T05:40:30.104Z,0
2016-11-21T05:41:10.792Z,0
2016-11-21T05:41:51.603Z,0
2016-11-21T05:42:32.397Z,0
2016-11-21T05:43:13.139Z,0
2016-11-21T05:43:53.890Z,0
2016-11-21T05:44:35.255Z,0
2016-11-21T05:45:15.231Z,0
2016-11-21T05:45:56.053Z,0
2016-11-21T05:46:36.741Z,0
2016-11-21T05:47:17.479Z,0
2016-11-21T05:47:58.124Z,0
2016-11-21T05:48:38.806Z,0
2016-11-21T05:49:19.551Z,0
2016-11-21T05:50:00.195Z,0
2016-11-21T05:50:40.926Z,0
2016-11-21T05:51:21.673Z,0
2016-11-21T05:52:02.400Z,0
2016-11-21T05:52:43.100Z,0
2016-11-21T05:53:23.785Z,0
2016-11-21T05:54:04.421Z,0
2016-11-21T05:54:45.173Z,0
2016-11-21T05:55:25.854Z,0
2016-11-21T05:56:06.508Z,0
2016-11-21T05:56:47.238Z,0
2016-11-21T05:57:28.009Z,0
2016-11-21T05:58:08.880Z,0
2016-11-21T05:58:49.757Z,0
2016-11-21T05:59:30.432Z,0
2016-11-21T06:00:11.225Z,0
2016-11-21T06:00:51.940Z,0
2016-11-21T06:01:32.558Z,0
2016-11-21T06:02:13.385Z,0
2016-11-21T06:02:54.195Z,0
2016-11-21T06:03:35.073Z,0
2016-11-21T06:04:15.834Z,0
2016-11-21T06:04:56.584Z,0
2016-11-21T06:05:37.314Z,0
2016-11-21T06:06:18.072Z,0
2016-11-21T06:06:58.799Z,0
2016-11-21T06:07:39.492Z,0
2016-11-21T06:08:20.345Z,0
2016-11-21T06:09:01.029Z,0
2016-11-21T06:09:41.746Z,0
2016-11-21T06:10:22.563Z,0
2016-11-21T06:11:03.238Z,0
2016-11-21T06:11:43.995Z,0
2016-11-21T06:12:24.761Z,0
2016-11-21T06:13:05.564Z,0
2016-11-21T06:13:46.224Z,0
2016-11-21T06:14:26.885Z,0
2016-11-21T06:15:07.601Z,0
2016-11-21T06:15:48.411Z,0
2016-11-21T06:16:29.147Z,0
2016-11-21T06:17:09.885Z,0
2016-11-21T06:17:50.569Z,0
2016-11-21T06:18:31.348Z,0
2016-11-21T06:19:12.115Z,0
2016-11-21T06:19:52.770Z,0
2016-11-21T06:20:33.598Z,0
2016-11-21T06:21:14.305Z,0
2016-11-21T06:21:54.982Z,0
2016-11-21T06:22:35.701Z,0
2016-11-21T06:23:16.574Z,0
2016-11-21T06:23:57.313Z,0
2016-11-21T06:24:38.110Z,0
2016-11-21T06:25:18.836Z,0
2016-11-21T06:25:59.508Z,0
2016-11-21T06:26:40.400Z,0
2016-11-21T06:27:21.076Z,0
2016-11-21T06:28:01.634Z,0
2016-11-21T06:28:42.305Z,0
2016-11-21T06:29:23.051Z,0
2016-11-21T06:30:03.828Z,0
2016-11-21T06:30:44.644Z,0
2016-11-21T06:31:25.390Z,0
2016-11-21T06:32:06.116Z,0
2016-11-21T06:32:46.875Z,0
2016-11-21T06:33:27.594Z,0
2016-11-21T06:34:08.339Z,4
2016-11-21T06:34:49.051Z,4
2016-11-21T06:35:29.758Z,0
2016-11-21T06:36:11.342Z,0
2016-11-21T06:36:52.039Z,4
2016-11-21T06:37:32.902Z,4
2016-11-21T06:38:13.567Z,4
2016-11-21T06:38:54.264Z,8
2016-11-21T06:39:34.951Z,4
2016-11-21T06:40:15.628Z,4
2016-11-21T06:40:56.352Z,8
2016-11-21T06:41:37.156Z,8
2016-11-21T06:42:17.939Z,4
2016-11-21T06:42:58.707Z,8
2016-11-21T06:43:39.437Z,8
2016-11-21T06:44:20.117Z,8
2016-11-21T06:45:00.776Z,12
2016-11-21T06:45:41.404Z,8
2016-11-21T06:46:22.942Z,8
2016-11-21T06:47:03.674Z,12
2016-11-21T06:47:44.364Z,12
2016-11-21T06:48:25.175Z,16
2016-11-21T06:49:05.880Z,12
2016-11-21T06:49:46.520Z,16
2016-11-21T06:50:27.286Z,20
2016-11-21T06:51:07.979Z,20
2016-11-21T06:51:48.837Z,24
2016-11-21T06:52:29.572Z,24
2016-11-21T06:53:10.202Z,28
2016-11-21T06:53:50.973Z,28
2016-11-21T06:54:31.722Z,28
2016-11-21T06:55:12.431Z,28
2016-11-21T06:55:53.096Z,28
2016-11-21T06:56:33.837Z,28
2016-11-21T06:57:14.559Z,32
2016-11-21T06:57:55.355Z,36
2016-11-21T06:58:36.076Z,40
2016-11-21T06:59:16.697Z,40
2016-11-21T06:59:57.417Z,40
2016-11-21T07:00:38.266Z,40
2016-11-21T07:01:18.887Z,40
2016-11-21T07:01:59.582Z,40
2016-11-21T07:02:40.219Z,40
2016-11-21T07:03:20.844Z,40
2016-11-21T07:04:01.739Z,44
2016-11-21T07:04:42.510Z,44
2016-11-21T07:05:23.281Z,48
2016-11-21T07:06:04.011Z,48
2016-11-21T07:06:44.707Z,56
2016-11-21T07:07:25.453Z,60
2016-11-21T07:08:06.186Z,68
2016-11-21T07:08:47.037Z,68
2016-11-21T07:09:27.770Z,68
2016-11-21T07:10:08.470Z,68
2016-11-21T07:10:49.082Z,68
2016-11-21T07:11:29.808Z,72
2016-11-21T07:12:10.486Z,80
2016-11-21T07:12:51.169Z,80
2016-11-21T07:13:31.915Z,88
2016-11-21T07:14:12.531Z,100
2016-11-21T07:14:53.085Z,108
2016-11-21T07:15:33.921Z,120
2016-11-21T07:16:14.624Z,128
2016-11-21T07:16:55.319Z,132
2016-11-21T07:17:35.932Z,144
2016-11-21T07:18:16.577Z,152
2016-11-21T07:18:57.414Z,160
2016-11-21T07:19:38.148Z,160
2016-11-21T07:20:18.999Z,156
2016-11-21T07:20:59.717Z,148
2016-11-21T07:21:40.382Z,144
2016-11-21T07:22:21.126Z,140
2016-11-21T07:23:01.980Z,144
2016-11-21T07:23:42.638Z,148
2016-11-21T07:24:23.379Z,156
2016-11-21T07:25:04.110Z,164
2016-11-21T07:25:44.757Z,168
2016-11-21T07:26:25.542Z,172
2016-11-21T07:27:06.286Z,176
2016-11-21T07:27:47.069Z,176
2016-11-21T07:28:27.792Z,180
2016-11-21T07:29:08.519Z,184
2016-11-21T07:29:49.118Z,188
2016-11-21T07:30:29.876Z,192
2016-11-21T07:31:11.367Z,200
2016-11-21T07:31:52.127Z,212
2016-11-21T07:32:32.923Z,220
2016-11-21T07:33:13.723Z,228
2016-11-21T07:33:54.503Z,228
2016-11-21T07:34:35.297Z,232
2016-11-21T07:35:15.980Z,228
2016-11-21T07:35:56.613Z,228
2016-11-21T07:36:37.376Z,240
2016-11-21T07:37:18.106Z,248
2016-11-21T07:37:58.830Z,268
2016-11-21T07:38:39.527Z,288
2016-11-21T07:39:20.274Z,316
2016-11-21T07:40:01.017Z,336
2016-11-21T07:40:41.723Z,356
2016-11-21T07:41:22.504Z,372
2016-11-21T07:42:03.291Z,380
2016-11-21T07:42:43.997Z,392
2016-11-21T07:43:24.724Z,396
2016-11-21T07:44:05.500Z,396
2016-11-21T07:44:46.287Z,384
2016-11-21T07:45:27.046Z,364
2016-11-21T07:46:07.757Z,340
2016-11-21T07:46:48.495Z,324
2016-11-21T07:47:29.162Z,324
2016-11-21T07:48:09.899Z,328
2016-11-21T07:48:50.607Z,316
2016-11-21T07:49:31.544Z,304
2016-11-21T07:50:12.169Z,288
2016-11-21T07:50:52.926Z,280
2016-11-21T07:51:33.733Z,280
2016-11-21T07:52:14.633Z,292
2016-11-21T07:52:55.351Z,300
2016-11-21T07:53:36.068Z,312
2016-11-21T07:54:16.784Z,312
2016-11-21T07:54:57.516Z,304
2016-11-21T07:55:38.188Z,300
2016-11-21T07:56:18.846Z,300
2016-11-21T07:56:59.636Z,304
2016-11-21T07:57:40.364Z,308
2016-11-21T07:58:21.077Z,312
2016-11-21T07:59:01.823Z,316
2016-11-21T07:59:42.569Z,328
2016-11-21T08:00:23.275Z,340
2016-11-21T08:01:03.951Z,348
2016-11-21T08:01:44.623Z,360
2016-11-21T10:20:58.337Z,984
2016-11-21T10:21:38.967Z,1020
2016-11-21T10:22:20.379Z,1044
2016-11-21T10:23:01.034Z,1064
2016-11-21T10:23:41.711Z,1040
2016-11-21T10:24:22.315Z,1016
2016-11-21T10:25:02.921Z,1068
2016-11-21T10:25:43.647Z,1104
2016-11-21T10:26:24.306Z,1216
2016-11-21T10:27:05.027Z,1324
2016-11-21T10:27:45.665Z,1268
2016-11-21T10:28:26.346Z,1248
2016-11-21T10:29:07.055Z,1212
2016-11-21T10:29:47.691Z,1076
2016-11-21T10:30:28.313Z,1036
2016-11-21T10:31:08.927Z,1032
2016-11-21T10:31:49.713Z,1064
2016-11-21T10:32:30.327Z,1112
2016-11-21T10:33:10.891Z,1116
2016-11-21T10:33:51.528Z,1100
2016-11-21T10:34:32.202Z,1056
2016-11-21T10:35:12.827Z,1012
2016-11-21T10:35:53.632Z,936
2016-11-21T10:36:34.197Z,884
2016-11-21T10:37:14.793Z,928
2016-11-21T10:37:55.360Z,984
2016-11-21T10:38:35.992Z,952
2016-11-21T10:39:16.802Z,980
2016-11-21T10:39:57.464Z,1044
2016-11-21T10:40:38.180Z,1032
2016-11-21T10:41:18.818Z,920
2016-11-21T10:41:59.438Z,1044
2016-11-21T10:42:40.092Z,1164
2016-11-21T10:43:20.786Z,1124
2016-11-21T10:44:01.419Z,1092
2016-11-21T10:44:42.210Z,1128
2016-11-21T10:45:22.865Z,1140
2016-11-21T10:46:03.507Z,1160
2016-11-21T10:46:44.217Z,1212
2016-11-21T10:47:24.909Z,1188
2016-11-21T10:48:05.499Z,1120
2016-11-21T10:48:46.121Z,1076
2016-11-21T10:49:27.020Z,1048
2016-11-21T10:50:07.725Z,1004
2016-11-21T10:50:48.457Z,952
2016-11-21T10:51:29.159Z,956
2016-11-21T10:52:09.965Z,1112
2016-11-21T10:52:50.584Z,1288
2016-11-21T10:53:31.345Z,1368
2016-11-21T10:54:12.073Z,1448
2016-11-21T10:54:52.676Z,1456
2016-11-21T10:55:33.367Z,1412
2016-11-21T10:56:13.979Z,1412
2016-11-21T10:56:54.615Z,1400
2016-11-21T10:57:35.263Z,1384
2016-11-21T10:58:15.889Z,1340
2016-11-21T10:58:56.492Z,1348
2016-11-21T10:59:37.049Z,1428
2016-11-21T11:00:17.646Z,1480
2016-11-21T11:00:58.373Z,1488
2016-11-21T11:01:39.037Z,1568
2016-11-21T11:02:19.602Z,1592
2016-11-21T11:03:00.286Z,1540
2016-11-21T11:03:40.944Z,1388
2016-11-21T11:04:21.562Z,1324
2016-11-21T11:05:02.193Z,1288
2016-11-21T11:05:42.903Z,1184
2016-11-21T11:06:23.728Z,1152
2016-11-21T11:07:04.417Z,1220
2016-11-21T11:07:45.129Z,1308
2016-11-21T11:08:25.857Z,1420
2016-11-21T11:09:06.476Z,1532
2016-11-21T11:09:47.105Z,1656
2016-11-21T11:10:27.713Z,1688
2016-11-21T11:11:08.395Z,1632
2016-11-21T11:11:48.967Z,1656
2016-11-21T11:12:29.511Z,1636
2016-11-21T11:13:10.186Z,1584
2016-11-21T11:13:50.955Z,1588
2016-11-21T11:14:31.691Z,1588
2016-11-21T11:15:12.341Z,1712
2016-11-21T11:15:52.931Z,1872
2016-11-21T11:16:33.625Z,1936
2016-11-21T11:17:14.206Z,2088
2016-11-21T11:17:54.777Z,2204
2016-11-21T11:18:35.378Z,2268
2016-11-21T11:19:16.032Z,2240
2016-11-21T11:19:56.697Z,2348
2016-11-21T11:20:37.292Z,2376
2016-11-21T11:21:17.896Z,2208
2016-11-21T11:21:58.540Z,2156
2016-11-21T11:22:39.201Z,2252
2016-11-21T11:23:19.820Z,2264
2016-11-21T11:24:00.454Z,2096
2016-11-21T11:24:41.056Z,1868
2016-11-21T11:25:21.751Z,1652
2016-11-21T11:26:02.363Z,1648
2016-11-21T11:26:43.014Z,1692
2016-11-21T11:27:23.644Z,1632
2016-11-21T11:28:04.244Z,1516
2016-11-21T11:28:44.874Z,1448
2016-11-21T11:29:25.497Z,1460
2016-11-21T11:30:06.089Z,1480
2016-11-21T11:30:46.746Z,1476
2016-11-21T11:31:27.301Z,1440
2016-11-21T11:32:07.922Z,1376
2016-11-21T11:32:48.611Z,1308
2016-11-21T11:33:29.199Z,1324
2016-11-21T11:34:09.908Z,1376
2016-11-21T11:34:50.478Z,1356
2016-11-21T11:35:31.200Z,1252
2016-11-21T11:36:11.804Z,1156
2016-11-21T11:36:52.446Z,1232
2016-11-21T11:37:33.001Z,1312
2016-11-21T11:38:13.625Z,1272
2016-11-21T11:38:54.233Z,1224
2016-11-21T11:39:34.834Z,1304
2016-11-21T11:40:15.413Z,1444
2016-11-21T11:40:56.177Z,1580
2016-11-21T11:41:36.817Z,1712
2016-11-21T11:42:17.427Z,1888
2016-11-21T11:42:58.190Z,2020
2016-11-21T11:43:38.850Z,2120
2016-11-21T11:44:19.656Z,2140
2016-11-21T11:45:00.327Z,2104
2016-11-21T11:45:40.946Z,2064
2016-11-21T11:46:21.670Z,2028
2016-11-21T11:47:02.272Z,2104
2016-11-21T11:47:42.964Z,2148
2016-11-21T11:48:23.566Z,2304
2016-11-21T11:49:04.226Z,2528
2016-11-21T11:49:44.897Z,2700
2016-11-21T11:50:25.561Z,2868
2016-11-21T11:51:06.160Z,2988
2016-11-21T11:51:46.768Z,3032
2016-11-21T11:52:27.538Z,3012
2016-11-21T11:53:08.229Z,2952
2016-11-21T11:53:48.875Z,2988
2016-11-21T11:54:29.513Z,3144
2016-11-21T11:55:10.149Z,3364
2016-11-21T11:55:50.795Z,3568
2016-11-21T11:56:31.547Z,3672
2016-11-21T11:57:12.313Z,3856
2016-11-21T11:57:52.990Z,4088
2016-11-21T11:58:33.644Z,4240
2016-11-21T11:59:14.184Z,4316
2016-11-21T11:59:55.817Z,4252
2016-11-21T12:00:36.517Z,4092
2016-11-21T12:01:17.087Z,3956
2016-11-21T12:01:57.775Z,3808
2016-11-21T12:02:38.415Z,3712
2016-11-21T12:03:19.155Z,3568
2016-11-21T12:03:59.702Z,3512
2016-11-21T12:04:40.284Z,3640
2016-11-21T12:05:20.945Z,3832
2016-11-21T12:06:01.650Z,3948
2016-11-21T12:06:42.252Z,3912